• Join FlightAware (Why Join?)
  • Login
  • US Flag 
01:01AM EDT


 

Airport Tracker/Info


-or-


 

Live Flight TrackerFlight Track Log ✈ ASQ6115 ✈ 13-Jun-2013 ✈ KIAH - KMFE

Flight Track Log - Related Links

Times and Time Zones

All times are in EDT time to prevent confusion due to time zone crossing. See the ASQ6115 flight status page for this flight to view local times or setup timezone preferences in your user account.

Time Position Orientation Groundspeed Altitude Reporting Facility
EDT Latitude Longitude Course Direction KTS MPH feet Rate Location/Type
02:20PM 29.9114 -95.2750 189° South 226 260 2,800  Level Houston Center
02:21PM 29.8553 -95.2019 132° Southeast 246 283 4,500 1,740 Climbing Houston Center
02:22PM 29.5949 -95.4104 191° South  Level FlightAware Approximate
02:22PM 29.7994 -95.1453 139° Southeast 266 306 6,700  Level Houston Center
02:23PM 29.4979 -95.4304 190° South  Level FlightAware Approximate
02:23PM 29.7292 -95.1128 158° South 287 330 8,900  Level Houston Center
02:24PM 29.4008 -95.4498 190° South  Level FlightAware Approximate
02:24PM 29.6511 -95.1361 195° South 287 330 10,400  Level Houston Center
02:25PM 29.3078 -95.4673 189° South  Level FlightAware Approximate
02:25PM 29.5528 -95.1658 195° South 324 373 11,200  Level Houston Center
02:26PM 29.4631 -95.2136 205° Southwest 349 402 12,400 1,080 Climbing Houston Center
02:27PM 29.3722 -95.2647 206° Southwest 358 412 13,500 1,140 Climbing Houston Center
02:28PM 29.2939 -95.3372 219° Southwest 372 428 14,800 960 Climbing Houston Center
02:29PM 29.2350 -95.4358 236° Southwest 376 433 15,600 840 Climbing Houston Center
02:30PM 29.1636 -95.5569 236° Southwest 381 438 16,600 900 Climbing Houston Center
02:31PM 29.0908 -95.6475 227° Southwest 385 443 17,500 780 Climbing Houston Center
02:32PM 29.0175 -95.7394 228° Southwest 389 448 18,300 720 Climbing Houston Center
02:33PM 28.9442 -95.8317 228° Southwest 391 450 19,100 780 Climbing Houston Center
02:34PM 28.8686 -95.9217 226° Southwest 393 452 20,000 780 Climbing Houston Center
02:35PM 28.7906 -96.0114 225° Southwest 396 456 20,800 840 Climbing Houston Center
02:36PM 28.6856 -96.1067 219° Southwest 403 464 21,800 900 Climbing Houston Center
02:37PM 28.5983 -96.1836 218° Southwest 397 457 22,700 840 Climbing Houston Center
02:38PM 28.5106 -96.2600 217° Southwest 397 457 23,600 600 Climbing Houston Center
02:39PM 28.4219 -96.3369 217° Southwest 398 458 24,000 180 Climbing Houston Center
02:40PM 28.3303 -96.4172 218° Southwest 410 472 24,000  Level Houston Center
02:42PM 28.2353 -96.4978 217° Southwest 421 484 24,000  Level Houston Center
02:43PM 28.1186 -96.5989 217° Southwest 433 498 24,000  Level Houston Center
02:44PM 28.0208 -96.6825 217° Southwest 439 505 24,000 -60 Level Houston Center
02:45PM 27.9253 -96.7650 217° Southwest 434 499 23,900  Descending Houston Center
02:46PM 27.8333 -96.8447 217° Southwest 422 486 24,000  Climbing Houston Center
02:47PM 27.7419 -96.9231 217° Southwest 415 478 24,000  Level Houston Center
02:48PM 27.6506 -97.0014 217° Southwest 412 474 24,000 -60 Level Houston Center
02:49PM 27.5406 -97.0944 217° Southwest 412 474 23,900 -420 Descending Houston Center
02:50PM 27.4522 -97.1689 217° Southwest 411 473 23,200 -780 Descending Houston Center
02:51PM 27.3631 -97.2450 217° Southwest 406 467 22,300 -1,020 Descending Houston Center
02:52PM 27.2733 -97.3217 217° Southwest 405 466 21,200 -1,260 Descending Houston Center
02:53PM 27.1853 -97.3972 217° Southwest 401 461 19,800 -1,620 Descending Houston Center
02:54PM 27.1033 -97.4928 226° Southwest 389 448 18,100 -1,680 Descending Houston Center
02:55PM 27.0272 -97.6047 233° Southwest 411 473 16,400 -900 Descending Houston Center
02:56PM 26.9522 -97.7294 236° Southwest 380 437 16,100 -240 Descending Houston Center
02:57PM 26.8953 -97.8103 232° Southwest 397 457 15,900 -1,200 Descending Houston Center
02:58PM 26.7981 -97.8803 213° Southwest 388 447 13,900 -1,860 Descending Houston Center
02:59PM 26.7233 -97.9519 221° Southwest 359 413 12,100 -1,560 Descending Houston Center
03:00PM 26.6608 -98.0319 229° Southwest 325 374 10,700 -1,740 Descending Houston Center
03:01PM 26.6094 -98.0969 229° Southwest 292 336 8,600 -2,220 Descending Houston Center
03:02PM 26.5531 -98.1581 224° Southwest 268 308 6,200 -2,220 Descending Houston Center
03:03PM 26.4925 -98.2139 220° Southwest 253 291 3,800 -2,040 Descending Houston Center
03:04PM 26.4397 -98.2631 220° Southwest 254 292 2,000 -900 Descending Houston Center
03:05PM 26.3867 -98.3092 218° Southwest 244 281 2,100  Climbing Houston Center
03:06PM 26.3206 -98.3375 201° Southwest 238 274 2,000 -120 Descending Houston Center